Terminal Aerodrome Forecast
Issued by NWS Memphis, TN

Home | Current Version | Previous Version | Text Only | Print | Product List | Glossary On
Versions: 1 2 3 4 5 6 7 8 9 10 11 12 13 14 15
000
FTUS44 KMEG 172300
TAFMKL
TAF
KMKL 172331Z 1800/1824 VRB03KT P6SM SCT040 BKN100
     FM180100 00000KT P6SM BKN035 BKN060 BKN100
     FM180400 00000KT P6SM OVC025
     FM181200 VRB03KT P6SM BKN040=

USA.gov is the U.S. government's official web portal to all federal, state and local government web resources and services.